sensor_id;sensor_type;location;lat;lon;timestamp;P1;durP1;ratioP1;P2;durP2;ratioP2
23670;SDS011;12012;51.998;7.614;2023-04-07T00:00:25;24.13;;;16.23;;
23670;SDS011;12012;51.998;7.614;2023-04-07T00:02:51;21.25;;;16.35;;
23670;SDS011;12012;51.998;7.614;2023-04-07T00:05:17;22.85;;;16.80;;
23670;SDS011;12012;51.998;7.614;2023-04-07T00:07:43;22.50;;;16.02;;
23670;SDS011;12012;51.998;7.614;2023-04-07T00:10:09;24.48;;;18.65;;
23670;SDS011;12012;51.998;7.614;2023-04-07T00:12:34;23.55;;;17.25;;
23670;SDS011;12012;51.998;7.614;2023-04-07T00:15:00;22.70;;;15.68;;
23670;SDS011;12012;51.998;7.614;2023-04-07T00:17:26;25.60;;;17.70;;
23670;SDS011;12012;51.998;7.614;2023-04-07T00:19:52;22.67;;;16.45;;
23670;SDS011;12012;51.998;7.614;2023-04-07T00:22:17;19.92;;;15.90;;
23670;SDS011;12012;51.998;7.614;2023-04-07T00:24:43;23.13;;;16.60;;
23670;SDS011;12012;51.998;7.614;2023-04-07T00:27:08;21.83;;;16.73;;
23670;SDS011;12012;51.998;7.614;2023-04-07T00:29:34;21.42;;;15.75;;
23670;SDS011;12012;51.998;7.614;2023-04-07T00:32:00;19.98;;;15.50;;
23670;SDS011;12012;51.998;7.614;2023-04-07T00:34:25;21.17;;;15.30;;
23670;SDS011;12012;51.998;7.614;2023-04-07T00:36:51;20.80;;;15.40;;
23670;SDS011;12012;51.998;7.614;2023-04-07T00:39:17;17.60;;;13.70;;
23670;SDS011;12012;51.998;7.614;2023-04-07T00:41:44;18.95;;;14.15;;
23670;SDS011;12012;51.998;7.614;2023-04-07T00:44:10;22.67;;;17.17;;
23670;SDS011;12012;51.998;7.614;2023-04-07T00:46:36;19.92;;;14.88;;
23670;SDS011;12012;51.998;7.614;2023-04-07T00:49:02;21.83;;;15.82;;
23670;SDS011;12012;51.998;7.614;2023-04-07T00:51:27;23.00;;;16.27;;
23670;SDS011;12012;51.998;7.614;2023-04-07T00:53:53;20.95;;;16.25;;
23670;SDS011;12012;51.998;7.614;2023-04-07T00:56:19;23.08;;;16.70;;
23670;SDS011;12012;51.998;7.614;2023-04-07T00:58:45;23.00;;;16.92;;
23670;SDS011;12012;51.998;7.614;2023-04-07T01:01:12;21.13;;;15.88;;
23670;SDS011;12012;51.998;7.614;2023-04-07T01:03:53;24.17;;;16.95;;
23670;SDS011;12012;51.998;7.614;2023-04-07T01:06:26;23.80;;;16.45;;
23670;SDS011;12012;51.998;7.614;2023-04-07T01:11:31;23.55;;;16.15;;
23670;SDS011;12012;51.998;7.614;2023-04-07T01:14:06;22.75;;;15.50;;
23670;SDS011;12012;51.998;7.614;2023-04-07T01:16:43;22.63;;;15.15;;
23670;SDS011;12012;51.998;7.614;2023-04-07T01:21:56;25.15;;;16.73;;
23670;SDS011;12012;51.998;7.614;2023-04-07T01:27:18;22.50;;;15.45;;
23670;SDS011;12012;51.998;7.614;2023-04-07T01:29:48;20.80;;;14.60;;
23670;SDS011;12012;51.998;7.614;2023-04-07T01:32:17;19.25;;;14.20;;
23670;SDS011;12012;51.998;7.614;2023-04-07T01:34:44;23.40;;;16.27;;
23670;SDS011;12012;51.998;7.614;2023-04-07T01:37:13;21.90;;;15.52;;
23670;SDS011;12012;51.998;7.614;2023-04-07T01:39:40;22.02;;;16.42;;
23670;SDS011;12012;51.998;7.614;2023-04-07T01:42:06;21.65;;;14.95;;
23670;SDS011;12012;51.998;7.614;2023-04-07T01:44:33;26.13;;;18.33;;
23670;SDS011;12012;51.998;7.614;2023-04-07T01:46:59;22.73;;;16.63;;
23670;SDS011;12012;51.998;7.614;2023-04-07T01:49:26;19.23;;;14.13;;
23670;SDS011;12012;51.998;7.614;2023-04-07T01:51:54;18.45;;;13.90;;
23670;SDS011;12012;51.998;7.614;2023-04-07T01:54:21;17.75;;;13.52;;
23670;SDS011;12012;51.998;7.614;2023-04-07T01:56:48;17.98;;;13.23;;
23670;SDS011;12012;51.998;7.614;2023-04-07T01:59:13;21.38;;;15.05;;
23670;SDS011;12012;51.998;7.614;2023-04-07T02:01:39;21.13;;;15.20;;
23670;SDS011;12012;51.998;7.614;2023-04-07T02:06:50;20.80;;;14.35;;
23670;SDS011;12012;51.998;7.614;2023-04-07T02:09:19;18.50;;;14.40;;
23670;SDS011;12012;51.998;7.614;2023-04-07T02:11:46;18.58;;;13.85;;
23670;SDS011;12012;51.998;7.614;2023-04-07T02:14:13;19.05;;;14.02;;
23670;SDS011;12012;51.998;7.614;2023-04-07T02:16:41;21.83;;;16.35;;
23670;SDS011;12012;51.998;7.614;2023-04-07T02:19:07;23.95;;;14.90;;
23670;SDS011;12012;51.998;7.614;2023-04-07T02:21:33;18.67;;;14.05;;
23670;SDS011;12012;51.998;7.614;2023-04-07T02:24:00;17.42;;;12.93;;
23670;SDS011;12012;51.998;7.614;2023-04-07T02:28:59;20.40;;;14.77;;
23670;SDS011;12012;51.998;7.614;2023-04-07T02:31:25;18.05;;;13.50;;
23670;SDS011;12012;51.998;7.614;2023-04-07T02:33:50;19.13;;;14.57;;
23670;SDS011;12012;51.998;7.614;2023-04-07T02:36:16;18.33;;;13.98;;
23670;SDS011;12012;51.998;7.614;2023-04-07T02:38:41;19.88;;;14.70;;
23670;SDS011;12012;51.998;7.614;2023-04-07T02:41:07;19.55;;;13.95;;
23670;SDS011;12012;51.998;7.614;2023-04-07T02:43:33;23.95;;;17.67;;
23670;SDS011;12012;51.998;7.614;2023-04-07T02:45:58;22.63;;;15.60;;
23670;SDS011;12012;51.998;7.614;2023-04-07T02:48:24;20.02;;;14.73;;
23670;SDS011;12012;51.998;7.614;2023-04-07T02:50:49;18.40;;;13.38;;
23670;SDS011;12012;51.998;7.614;2023-04-07T02:53:15;18.90;;;13.68;;
23670;SDS011;12012;51.998;7.614;2023-04-07T02:55:40;21.23;;;15.75;;
23670;SDS011;12012;51.998;7.614;2023-04-07T02:58:06;17.35;;;13.13;;
23670;SDS011;12012;51.998;7.614;2023-04-07T03:00:32;18.15;;;13.98;;
23670;SDS011;12012;51.998;7.614;2023-04-07T03:02:58;19.75;;;14.73;;
23670;SDS011;12012;51.998;7.614;2023-04-07T03:05:24;17.15;;;11.98;;
23670;SDS011;12012;51.998;7.614;2023-04-07T03:07:49;22.73;;;16.38;;
23670;SDS011;12012;51.998;7.614;2023-04-07T03:10:15;21.13;;;15.32;;
23670;SDS011;12012;51.998;7.614;2023-04-07T03:12:41;19.35;;;13.57;;
23670;SDS011;12012;51.998;7.614;2023-04-07T03:15:07;19.05;;;14.68;;
23670;SDS011;12012;51.998;7.614;2023-04-07T03:17:33;16.35;;;11.65;;
23670;SDS011;12012;51.998;7.614;2023-04-07T03:19:59;17.42;;;13.75;;
23670;SDS011;12012;51.998;7.614;2023-04-07T03:22:24;17.27;;;12.80;;
23670;SDS011;12012;51.998;7.614;2023-04-07T03:24:50;19.95;;;14.35;;
23670;SDS011;12012;51.998;7.614;2023-04-07T03:27:16;20.83;;;14.82;;
23670;SDS011;12012;51.998;7.614;2023-04-07T03:29:42;18.05;;;13.50;;
23670;SDS011;12012;51.998;7.614;2023-04-07T03:32:08;22.95;;;15.65;;
23670;SDS011;12012;51.998;7.614;2023-04-07T03:34:33;17.40;;;12.82;;
23670;SDS011;12012;51.998;7.614;2023-04-07T03:36:59;17.75;;;13.65;;
23670;SDS011;12012;51.998;7.614;2023-04-07T03:39:25;19.45;;;15.27;;
23670;SDS011;12012;51.998;7.614;2023-04-07T03:41:50;16.25;;;12.07;;
23670;SDS011;12012;51.998;7.614;2023-04-07T03:44:16;15.48;;;11.75;;
23670;SDS011;12012;51.998;7.614;2023-04-07T03:46:41;23.50;;;14.82;;
23670;SDS011;12012;51.998;7.614;2023-04-07T03:49:09;16.42;;;12.02;;
23670;SDS011;12012;51.998;7.614;2023-04-07T03:51:35;21.58;;;15.30;;
23670;SDS011;12012;51.998;7.614;2023-04-07T03:54:01;14.98;;;11.90;;
23670;SDS011;12012;51.998;7.614;2023-04-07T03:56:26;19.13;;;14.32;;
23670;SDS011;12012;51.998;7.614;2023-04-07T03:58:52;19.50;;;15.07;;
23670;SDS011;12012;51.998;7.614;2023-04-07T04:01:18;19.52;;;14.55;;
23670;SDS011;12012;51.998;7.614;2023-04-07T04:03:43;19.17;;;13.77;;
23670;SDS011;12012;51.998;7.614;2023-04-07T04:06:10;18.17;;;13.40;;
23670;SDS011;12012;51.998;7.614;2023-04-07T04:08:36;17.10;;;12.80;;
23670;SDS011;12012;51.998;7.614;2023-04-07T04:11:01;16.17;;;11.48;;
23670;SDS011;12012;51.998;7.614;2023-04-07T04:13:27;16.10;;;13.10;;
23670;SDS011;12012;51.998;7.614;2023-04-07T04:15:52;13.50;;;11.27;;
23670;SDS011;12012;51.998;7.614;2023-04-07T04:18:18;18.20;;;13.07;;
23670;SDS011;12012;51.998;7.614;2023-04-07T04:20:44;15.60;;;12.02;;
23670;SDS011;12012;51.998;7.614;2023-04-07T04:23:09;16.02;;;12.45;;
23670;SDS011;12012;51.998;7.614;2023-04-07T04:25:35;15.90;;;12.00;;
23670;SDS011;12012;51.998;7.614;2023-04-07T04:28:03;16.52;;;12.05;;
23670;SDS011;12012;51.998;7.614;2023-04-07T04:30:29;14.85;;;11.65;;
23670;SDS011;12012;51.998;7.614;2023-04-07T04:32:55;17.70;;;13.52;;
23670;SDS011;12012;51.998;7.614;2023-04-07T04:35:21;13.95;;;9.68;;
23670;SDS011;12012;51.998;7.614;2023-04-07T04:37:46;13.57;;;10.65;;
23670;SDS011;12012;51.998;7.614;2023-04-07T04:40:12;12.80;;;9.98;;
23670;SDS011;12012;51.998;7.614;2023-04-07T04:42:38;10.30;;;8.27;;
23670;SDS011;12012;51.998;7.614;2023-04-07T04:45:04;12.70;;;9.55;;
23670;SDS011;12012;51.998;7.614;2023-04-07T04:47:30;17.35;;;13.18;;
23670;SDS011;12012;51.998;7.614;2023-04-07T04:49:56;14.07;;;11.00;;
23670;SDS011;12012;51.998;7.614;2023-04-07T04:52:21;15.65;;;11.95;;
23670;SDS011;12012;51.998;7.614;2023-04-07T04:54:47;13.95;;;11.02;;
23670;SDS011;12012;51.998;7.614;2023-04-07T04:57:12;13.18;;;11.20;;
23670;SDS011;12012;51.998;7.614;2023-04-07T04:59:38;11.80;;;9.30;;
23670;SDS011;12012;51.998;7.614;2023-04-07T05:02:04;15.25;;;10.57;;
23670;SDS011;12012;51.998;7.614;2023-04-07T05:04:29;13.73;;;9.88;;
23670;SDS011;12012;51.998;7.614;2023-04-07T05:06:55;14.45;;;11.57;;
23670;SDS011;12012;51.998;7.614;2023-04-07T05:09:21;15.13;;;11.43;;
23670;SDS011;12012;51.998;7.614;2023-04-07T05:11:46;17.65;;;13.88;;
23670;SDS011;12012;51.998;7.614;2023-04-07T05:14:12;13.68;;;10.95;;
23670;SDS011;12012;51.998;7.614;2023-04-07T05:16:38;18.20;;;12.30;;
23670;SDS011;12012;51.998;7.614;2023-04-07T05:19:03;15.82;;;12.68;;
23670;SDS011;12012;51.998;7.614;2023-04-07T05:21:29;19.13;;;12.60;;
23670;SDS011;12012;51.998;7.614;2023-04-07T05:23:55;14.48;;;9.85;;
23670;SDS011;12012;51.998;7.614;2023-04-07T05:26:21;11.93;;;9.40;;
23670;SDS011;12012;51.998;7.614;2023-04-07T05:28:46;13.23;;;9.88;;
23670;SDS011;12012;51.998;7.614;2023-04-07T05:31:12;17.67;;;12.63;;
23670;SDS011;12012;51.998;7.614;2023-04-07T05:33:37;17.95;;;12.73;;
23670;SDS011;12012;51.998;7.614;2023-04-07T05:36:03;12.02;;;9.27;;
23670;SDS011;12012;51.998;7.614;2023-04-07T05:38:28;13.07;;;10.85;;
23670;SDS011;12012;51.998;7.614;2023-04-07T05:40:54;11.82;;;9.65;;
23670;SDS011;12012;51.998;7.614;2023-04-07T05:43:20;13.60;;;10.43;;
23670;SDS011;12012;51.998;7.614;2023-04-07T05:45:45;16.25;;;11.77;;
23670;SDS011;12012;51.998;7.614;2023-04-07T05:48:11;16.42;;;12.43;;
23670;SDS011;12012;51.998;7.614;2023-04-07T05:50:37;12.90;;;10.77;;
23670;SDS011;12012;51.998;7.614;2023-04-07T05:53:02;12.95;;;10.10;;
23670;SDS011;12012;51.998;7.614;2023-04-07T05:55:28;14.95;;;10.23;;
23670;SDS011;12012;51.998;7.614;2023-04-07T05:57:53;14.02;;;10.95;;
23670;SDS011;12012;51.998;7.614;2023-04-07T06:00:19;15.15;;;11.13;;
23670;SDS011;12012;51.998;7.614;2023-04-07T06:02:45;13.20;;;10.40;;
23670;SDS011;12012;51.998;7.614;2023-04-07T06:05:11;13.80;;;10.82;;
23670;SDS011;12012;51.998;7.614;2023-04-07T06:07:36;11.93;;;9.38;;
23670;SDS011;12012;51.998;7.614;2023-04-07T06:10:02;13.43;;;10.18;;
23670;SDS011;12012;51.998;7.614;2023-04-07T06:12:28;14.38;;;11.50;;
23670;SDS011;12012;51.998;7.614;2023-04-07T06:14:54;13.43;;;10.88;;
23670;SDS011;12012;51.998;7.614;2023-04-07T06:17:20;10.88;;;8.48;;
23670;SDS011;12012;51.998;7.614;2023-04-07T06:19:46;11.75;;;9.18;;
23670;SDS011;12012;51.998;7.614;2023-04-07T06:22:12;11.73;;;9.00;;
23670;SDS011;12012;51.998;7.614;2023-04-07T06:24:37;14.05;;;11.52;;
23670;SDS011;12012;51.998;7.614;2023-04-07T06:27:03;14.18;;;10.63;;
23670;SDS011;12012;51.998;7.614;2023-04-07T06:29:29;11.13;;;9.32;;
23670;SDS011;12012;51.998;7.614;2023-04-07T06:31:56;16.40;;;11.07;;
23670;SDS011;12012;51.998;7.614;2023-04-07T06:34:22;12.13;;;8.98;;
23670;SDS011;12012;51.998;7.614;2023-04-07T06:36:47;10.57;;;8.32;;
23670;SDS011;12012;51.998;7.614;2023-04-07T06:39:13;11.35;;;9.38;;
23670;SDS011;12012;51.998;7.614;2023-04-07T06:41:39;11.95;;;9.32;;
23670;SDS011;12012;51.998;7.614;2023-04-07T06:44:07;12.48;;;9.45;;
23670;SDS011;12012;51.998;7.614;2023-04-07T06:46:34;12.85;;;9.82;;
23670;SDS011;12012;51.998;7.614;2023-04-07T06:49:00;12.15;;;9.88;;
23670;SDS011;12012;51.998;7.614;2023-04-07T06:51:26;14.65;;;11.10;;
23670;SDS011;12012;51.998;7.614;2023-04-07T06:53:51;11.63;;;7.93;;
23670;SDS011;12012;51.998;7.614;2023-04-07T06:56:17;12.90;;;8.52;;
23670;SDS011;12012;51.998;7.614;2023-04-07T06:58:43;10.25;;;8.00;;
23670;SDS011;12012;51.998;7.614;2023-04-07T07:01:08;10.45;;;9.02;;
23670;SDS011;12012;51.998;7.614;2023-04-07T07:03:34;14.02;;;10.20;;
23670;SDS011;12012;51.998;7.614;2023-04-07T07:06:00;9.65;;;8.35;;
23670;SDS011;12012;51.998;7.614;2023-04-07T07:08:26;14.35;;;10.75;;
23670;SDS011;12012;51.998;7.614;2023-04-07T07:10:52;14.18;;;11.50;;
23670;SDS011;12012;51.998;7.614;2023-04-07T07:13:19;11.00;;;9.05;;
23670;SDS011;12012;51.998;7.614;2023-04-07T07:15:47;10.50;;;8.50;;
23670;SDS011;12012;51.998;7.614;2023-04-07T07:18:13;8.20;;;6.82;;
23670;SDS011;12012;51.998;7.614;2023-04-07T07:20:39;11.82;;;9.38;;
23670;SDS011;12012;51.998;7.614;2023-04-07T07:23:05;7.72;;;6.60;;
23670;SDS011;12012;51.998;7.614;2023-04-07T07:25:30;9.18;;;7.78;;
23670;SDS011;12012;51.998;7.614;2023-04-07T07:27:56;10.40;;;7.60;;
23670;SDS011;12012;51.998;7.614;2023-04-07T07:30:23;9.02;;;8.00;;
23670;SDS011;12012;51.998;7.614;2023-04-07T07:32:49;11.50;;;8.57;;
23670;SDS011;12012;51.998;7.614;2023-04-07T07:35:15;12.45;;;9.68;;
23670;SDS011;12012;51.998;7.614;2023-04-07T07:37:41;11.75;;;9.13;;
23670;SDS011;12012;51.998;7.614;2023-04-07T07:40:08;12.80;;;10.52;;
23670;SDS011;12012;51.998;7.614;2023-04-07T07:42:34;11.98;;;9.48;;
23670;SDS011;12012;51.998;7.614;2023-04-07T07:45:00;12.93;;;10.25;;
23670;SDS011;12012;51.998;7.614;2023-04-07T07:47:26;10.43;;;8.18;;
23670;SDS011;12012;51.998;7.614;2023-04-07T07:49:51;9.15;;;8.10;;
23670;SDS011;12012;51.998;7.614;2023-04-07T07:52:17;9.82;;;8.13;;
23670;SDS011;12012;51.998;7.614;2023-04-07T07:54:44;13.38;;;9.95;;
23670;SDS011;12012;51.998;7.614;2023-04-07T07:57:10;13.93;;;10.88;;
23670;SDS011;12012;51.998;7.614;2023-04-07T07:59:36;14.68;;;9.10;;
23670;SDS011;12012;51.998;7.614;2023-04-07T08:02:04;9.15;;;8.05;;
23670;SDS011;12012;51.998;7.614;2023-04-07T08:04:30;11.00;;;7.72;;
23670;SDS011;12012;51.998;7.614;2023-04-07T08:06:56;8.45;;;7.15;;
23670;SDS011;12012;51.998;7.614;2023-04-07T08:09:22;10.95;;;8.88;;
23670;SDS011;12012;51.998;7.614;2023-04-07T08:11:48;10.27;;;8.30;;
23670;SDS011;12012;51.998;7.614;2023-04-07T08:14:14;10.07;;;8.68;;
23670;SDS011;12012;51.998;7.614;2023-04-07T08:16:39;10.63;;;8.40;;
23670;SDS011;12012;51.998;7.614;2023-04-07T08:19:05;10.73;;;8.38;;
23670;SDS011;12012;51.998;7.614;2023-04-07T08:21:31;10.60;;;9.02;;
23670;SDS011;12012;51.998;7.614;2023-04-07T08:23:56;10.55;;;8.55;;
23670;SDS011;12012;51.998;7.614;2023-04-07T08:26:22;9.60;;;7.70;;
23670;SDS011;12012;51.998;7.614;2023-04-07T08:28:48;10.82;;;9.02;;
23670;SDS011;12012;51.998;7.614;2023-04-07T08:31:15;12.35;;;9.23;;
23670;SDS011;12012;51.998;7.614;2023-04-07T08:33:41;11.88;;;9.48;;
23670;SDS011;12012;51.998;7.614;2023-04-07T08:36:07;12.48;;;10.40;;
23670;SDS011;12012;51.998;7.614;2023-04-07T08:38:32;11.73;;;8.68;;
23670;SDS011;12012;51.998;7.614;2023-04-07T08:41:09;11.05;;;8.77;;
23670;SDS011;12012;51.998;7.614;2023-04-07T08:43:36;9.63;;;7.28;;
23670;SDS011;12012;51.998;7.614;2023-04-07T08:46:04;10.43;;;8.93;;
23670;SDS011;12012;51.998;7.614;2023-04-07T08:48:30;9.35;;;7.72;;
23670;SDS011;12012;51.998;7.614;2023-04-07T08:51:03;8.25;;;6.82;;
23670;SDS011;12012;51.998;7.614;2023-04-07T08:53:39;10.50;;;8.97;;
23670;SDS011;12012;51.998;7.614;2023-04-07T08:56:07;10.48;;;8.27;;
23670;SDS011;12012;51.998;7.614;2023-04-07T08:58:35;10.00;;;8.60;;
23670;SDS011;12012;51.998;7.614;2023-04-07T09:01:03;9.68;;;8.15;;
23670;SDS011;12012;51.998;7.614;2023-04-07T09:03:29;12.98;;;10.15;;
23670;SDS011;12012;51.998;7.614;2023-04-07T09:05:56;9.75;;;7.68;;
23670;SDS011;12012;51.998;7.614;2023-04-07T09:08:23;9.13;;;7.95;;
23670;SDS011;12012;51.998;7.614;2023-04-07T09:10:48;8.95;;;7.38;;
23670;SDS011;12012;51.998;7.614;2023-04-07T09:13:14;9.30;;;7.68;;
23670;SDS011;12012;51.998;7.614;2023-04-07T09:15:40;10.90;;;8.00;;
23670;SDS011;12012;51.998;7.614;2023-04-07T09:18:06;9.38;;;8.13;;
23670;SDS011;12012;51.998;7.614;2023-04-07T09:25:57;8.63;;;7.55;;
23670;SDS011;12012;51.998;7.614;2023-04-07T09:28:24;8.23;;;6.90;;
23670;SDS011;12012;51.998;7.614;2023-04-07T09:30:53;9.23;;;7.55;;
23670;SDS011;12012;51.998;7.614;2023-04-07T09:33:28;8.32;;;7.03;;
23670;SDS011;12012;51.998;7.614;2023-04-07T09:35:54;7.97;;;6.75;;
23670;SDS011;12012;51.998;7.614;2023-04-07T09:38:20;9.02;;;6.22;;
23670;SDS011;12012;51.998;7.614;2023-04-07T09:40:46;7.63;;;6.20;;
23670;SDS011;12012;51.998;7.614;2023-04-07T09:43:16;9.02;;;6.70;;
23670;SDS011;12012;51.998;7.614;2023-04-07T09:45:43;7.00;;;6.30;;
23670;SDS011;12012;51.998;7.614;2023-04-07T09:48:18;8.18;;;6.28;;
23670;SDS011;12012;51.998;7.614;2023-04-07T09:50:44;10.00;;;6.70;;
23670;SDS011;12012;51.998;7.614;2023-04-07T09:53:13;10.93;;;6.38;;
23670;SDS011;12012;51.998;7.614;2023-04-07T09:55:40;9.82;;;7.00;;
23670;SDS011;12012;51.998;7.614;2023-04-07T09:58:06;8.20;;;6.47;;
23670;SDS011;12012;51.998;7.614;2023-04-07T10:00:34;9.70;;;7.32;;
23670;SDS011;12012;51.998;7.614;2023-04-07T10:02:59;9.73;;;8.50;;
23670;SDS011;12012;51.998;7.614;2023-04-07T10:05:25;7.82;;;6.80;;
23670;SDS011;12012;51.998;7.614;2023-04-07T10:07:52;8.52;;;7.32;;
23670;SDS011;12012;51.998;7.614;2023-04-07T10:10:18;8.02;;;6.70;;
23670;SDS011;12012;51.998;7.614;2023-04-07T10:12:44;8.60;;;7.38;;
23670;SDS011;12012;51.998;7.614;2023-04-07T10:15:11;10.27;;;7.53;;
23670;SDS011;12012;51.998;7.614;2023-04-07T10:17:39;8.23;;;6.80;;
23670;SDS011;12012;51.998;7.614;2023-04-07T10:20:09;7.03;;;6.20;;
23670;SDS011;12012;51.998;7.614;2023-04-07T10:22:35;8.65;;;6.80;;
23670;SDS011;12012;51.998;7.614;2023-04-07T10:25:07;9.00;;;6.95;;
23670;SDS011;12012;51.998;7.614;2023-04-07T10:27:39;9.88;;;6.65;;
23670;SDS011;12012;51.998;7.614;2023-04-07T10:30:26;8.73;;;6.13;;
23670;SDS011;12012;51.998;7.614;2023-04-07T10:32:53;7.80;;;6.40;;
23670;SDS011;12012;51.998;7.614;2023-04-07T10:35:19;8.30;;;6.55;;
23670;SDS011;12012;51.998;7.614;2023-04-07T10:40:34;8.18;;;6.10;;
23670;SDS011;12012;51.998;7.614;2023-04-07T10:43:01;9.05;;;7.55;;
23670;SDS011;12012;51.998;7.614;2023-04-07T10:48:18;7.65;;;6.80;;
23670;SDS011;12012;51.998;7.614;2023-04-07T10:50:45;9.05;;;6.32;;
23670;SDS011;12012;51.998;7.614;2023-04-07T10:53:31;6.82;;;5.50;;
23670;SDS011;12012;51.998;7.614;2023-04-07T10:55:57;6.80;;;6.10;;
23670;SDS011;12012;51.998;7.614;2023-04-07T10:58:24;7.13;;;4.50;;
23670;SDS011;12012;51.998;7.614;2023-04-07T11:03:29;7.28;;;5.18;;
23670;SDS011;12012;51.998;7.614;2023-04-07T11:06:09;5.57;;;4.55;;
23670;SDS011;12012;51.998;7.614;2023-04-07T11:08:37;5.20;;;4.25;;
23670;SDS011;12012;51.998;7.614;2023-04-07T11:11:04;4.50;;;3.78;;
23670;SDS011;12012;51.998;7.614;2023-04-07T11:13:41;4.55;;;3.70;;
23670;SDS011;12012;51.998;7.614;2023-04-07T11:16:08;4.55;;;3.95;;
23670;SDS011;12012;51.998;7.614;2023-04-07T11:18:34;3.97;;;3.60;;
23670;SDS011;12012;51.998;7.614;2023-04-07T11:21:01;4.63;;;3.78;;
23670;SDS011;12012;51.998;7.614;2023-04-07T11:23:27;3.42;;;3.13;;
23670;SDS011;12012;51.998;7.614;2023-04-07T11:25:59;4.80;;;4.20;;
23670;SDS011;12012;51.998;7.614;2023-04-07T11:28:26;3.95;;;2.92;;
23670;SDS011;12012;51.998;7.614;2023-04-07T11:30:52;4.57;;;3.50;;
23670;SDS011;12012;51.998;7.614;2023-04-07T11:33:22;4.10;;;3.42;;
23670;SDS011;12012;51.998;7.614;2023-04-07T11:35:51;4.93;;;4.28;;
23670;SDS011;12012;51.998;7.614;2023-04-07T11:38:19;3.88;;;3.47;;
23670;SDS011;12012;51.998;7.614;2023-04-07T11:40:46;3.65;;;2.60;;
23670;SDS011;12012;51.998;7.614;2023-04-07T11:43:15;3.40;;;3.10;;
23670;SDS011;12012;51.998;7.614;2023-04-07T11:45:42;4.72;;;4.20;;
23670;SDS011;12012;51.998;7.614;2023-04-07T11:48:30;3.80;;;3.47;;
23670;SDS011;12012;51.998;7.614;2023-04-07T11:50:55;2.90;;;2.60;;
23670;SDS011;12012;51.998;7.614;2023-04-07T11:53:27;4.30;;;2.80;;
23670;SDS011;12012;51.998;7.614;2023-04-07T11:56:04;2.60;;;2.40;;
23670;SDS011;12012;51.998;7.614;2023-04-07T11:58:33;3.30;;;3.00;;
23670;SDS011;12012;51.998;7.614;2023-04-07T12:01:04;3.28;;;2.97;;
23670;SDS011;12012;51.998;7.614;2023-04-07T12:03:34;3.35;;;3.05;;
23670;SDS011;12012;51.998;7.614;2023-04-07T12:06:03;3.75;;;3.28;;
23670;SDS011;12012;51.998;7.614;2023-04-07T12:08:36;3.42;;;2.78;;
23670;SDS011;12012;51.998;7.614;2023-04-07T12:11:03;3.58;;;3.28;;
23670;SDS011;12012;51.998;7.614;2023-04-07T12:13:29;3.58;;;3.00;;
23670;SDS011;12012;51.998;7.614;2023-04-07T12:15:55;4.32;;;3.08;;
23670;SDS011;12012;51.998;7.614;2023-04-07T12:18:22;3.65;;;3.33;;
23670;SDS011;12012;51.998;7.614;2023-04-07T12:20:49;3.15;;;2.65;;
23670;SDS011;12012;51.998;7.614;2023-04-07T12:23:14;2.88;;;2.63;;
23670;SDS011;12012;51.998;7.614;2023-04-07T12:25:40;4.03;;;3.30;;
23670;SDS011;12012;51.998;7.614;2023-04-07T12:28:06;3.50;;;3.20;;
23670;SDS011;12012;51.998;7.614;2023-04-07T12:30:31;4.28;;;3.88;;
23670;SDS011;12012;51.998;7.614;2023-04-07T12:32:57;3.85;;;3.55;;
23670;SDS011;12012;51.998;7.614;2023-04-07T12:35:22;2.80;;;2.60;;
23670;SDS011;12012;51.998;7.614;2023-04-07T12:37:48;2.88;;;2.60;;
23670;SDS011;12012;51.998;7.614;2023-04-07T12:40:15;3.65;;;3.35;;
23670;SDS011;12012;51.998;7.614;2023-04-07T12:42:41;3.35;;;2.90;;
23670;SDS011;12012;51.998;7.614;2023-04-07T12:45:07;4.50;;;3.00;;
23670;SDS011;12012;51.998;7.614;2023-04-07T12:47:33;2.88;;;2.50;;
23670;SDS011;12012;51.998;7.614;2023-04-07T12:49:58;3.42;;;3.13;;
23670;SDS011;12012;51.998;7.614;2023-04-07T12:52:25;3.15;;;2.85;;
23670;SDS011;12012;51.998;7.614;2023-04-07T12:54:50;4.00;;;3.30;;
23670;SDS011;12012;51.998;7.614;2023-04-07T12:57:17;3.85;;;3.10;;
23670;SDS011;12012;51.998;7.614;2023-04-07T12:59:42;3.95;;;3.35;;
23670;SDS011;12012;51.998;7.614;2023-04-07T13:02:08;3.58;;;3.08;;
23670;SDS011;12012;51.998;7.614;2023-04-07T13:04:37;3.60;;;3.30;;
23670;SDS011;12012;51.998;7.614;2023-04-07T13:07:04;4.15;;;3.47;;
23670;SDS011;12012;51.998;7.614;2023-04-07T13:09:30;6.00;;;4.57;;
23670;SDS011;12012;51.998;7.614;2023-04-07T13:11:55;4.20;;;3.72;;
23670;SDS011;12012;51.998;7.614;2023-04-07T13:14:21;4.00;;;3.60;;
23670;SDS011;12012;51.998;7.614;2023-04-07T13:16:47;3.90;;;3.10;;
23670;SDS011;12012;51.998;7.614;2023-04-07T13:19:13;4.20;;;3.58;;
23670;SDS011;12012;51.998;7.614;2023-04-07T13:21:39;4.00;;;3.17;;
23670;SDS011;12012;51.998;7.614;2023-04-07T13:24:04;3.35;;;2.95;;
23670;SDS011;12012;51.998;7.614;2023-04-07T13:26:30;3.35;;;2.90;;
23670;SDS011;12012;51.998;7.614;2023-04-07T13:28:55;3.83;;;3.00;;
23670;SDS011;12012;51.998;7.614;2023-04-07T13:31:21;3.38;;;2.92;;
23670;SDS011;12012;51.998;7.614;2023-04-07T13:33:47;3.13;;;2.60;;
23670;SDS011;12012;51.998;7.614;2023-04-07T13:36:13;4.30;;;3.28;;
23670;SDS011;12012;51.998;7.614;2023-04-07T13:38:38;3.50;;;2.92;;
23670;SDS011;12012;51.998;7.614;2023-04-07T13:41:06;3.13;;;2.83;;
23670;SDS011;12012;51.998;7.614;2023-04-07T13:43:31;2.80;;;2.60;;
23670;SDS011;12012;51.998;7.614;2023-04-07T13:45:57;3.53;;;2.97;;
23670;SDS011;12012;51.998;7.614;2023-04-07T13:48:22;3.13;;;2.83;;
23670;SDS011;12012;51.998;7.614;2023-04-07T13:50:48;3.83;;;2.92;;
23670;SDS011;12012;51.998;7.614;2023-04-07T13:53:14;2.60;;;2.40;;
23670;SDS011;12012;51.998;7.614;2023-04-07T13:55:39;2.85;;;2.58;;
23670;SDS011;12012;51.998;7.614;2023-04-07T13:58:05;2.63;;;2.42;;
23670;SDS011;12012;51.998;7.614;2023-04-07T14:00:31;2.78;;;2.42;;
23670;SDS011;12012;51.998;7.614;2023-04-07T14:02:56;2.47;;;2.28;;
23670;SDS011;12012;51.998;7.614;2023-04-07T14:05:22;3.15;;;2.90;;
23670;SDS011;12012;51.998;7.614;2023-04-07T14:07:48;2.50;;;2.30;;
23670;SDS011;12012;51.998;7.614;2023-04-07T14:10:14;3.30;;;2.05;;
23670;SDS011;12012;51.998;7.614;2023-04-07T14:12:40;4.10;;;2.33;;
23670;SDS011;12012;51.998;7.614;2023-04-07T14:15:06;2.70;;;2.35;;
23670;SDS011;12012;51.998;7.614;2023-04-07T14:17:32;2.50;;;1.98;;
23670;SDS011;12012;51.998;7.614;2023-04-07T14:19:58;2.97;;;2.67;;
23670;SDS011;12012;51.998;7.614;2023-04-07T14:22:23;1.85;;;1.75;;
23670;SDS011;12012;51.998;7.614;2023-04-07T14:24:49;2.05;;;1.85;;
23670;SDS011;12012;51.998;7.614;2023-04-07T14:27:14;2.60;;;2.40;;
23670;SDS011;12012;51.998;7.614;2023-04-07T14:29:40;2.65;;;2.20;;
23670;SDS011;12012;51.998;7.614;2023-04-07T14:32:05;2.50;;;2.13;;
23670;SDS011;12012;51.998;7.614;2023-04-07T14:34:31;3.28;;;2.50;;
23670;SDS011;12012;51.998;7.614;2023-04-07T14:36:58;2.35;;;2.20;;
23670;SDS011;12012;51.998;7.614;2023-04-07T14:39:23;1.80;;;1.70;;
23670;SDS011;12012;51.998;7.614;2023-04-07T14:41:49;2.13;;;1.92;;
23670;SDS011;12012;51.998;7.614;2023-04-07T14:44:16;3.60;;;2.10;;
23670;SDS011;12012;51.998;7.614;2023-04-07T14:46:41;2.20;;;2.00;;
23670;SDS011;12012;51.998;7.614;2023-04-07T14:49:07;2.03;;;1.83;;
23670;SDS011;12012;51.998;7.614;2023-04-07T14:51:33;1.63;;;1.52;;
23670;SDS011;12012;51.998;7.614;2023-04-07T14:53:59;1.67;;;1.58;;
23670;SDS011;12012;51.998;7.614;2023-04-07T14:56:24;1.80;;;1.70;;